RJFMRJDC

Guest
Details From RJFM - MIYAZAKI
To RJDC - YAMAGUCHI UBE
Flight Number -
Tags generated
Created
Modified
Stats Distance 124 nm / 229 km
Max Altitude 14,400 ft / 4,389 m
Waypoints 3
Social Downloads 7
Likes 0
Share VATSIM

Download

Looking for another format? Having issues loading an existing format? Contact us
Advertisement - Login to hide

Notes

Basic altitude profile: - Ascent Rate: 2500ft/min - Ascent Speed: 250kts - Cruise Altitude: 35000ft - Cruise Speed: 420kts - Descent Rate: 1500ft/min - Descent Speed: 250kts Options: - Use NATs: yes - Use PACOTS: yes - Use low airways: yes - Use high airways: yes

Route

RJFM SOBOH RJDC

ID Type Via Altitude Latitude Longitude Leg Dist Tot Dist Heading (true) Name
O RJFM APT - 0 ft / 0 m 31.87713˚ 131.44845˚ - 0 nm - MIYAZAKI
SOBOH FIX - 14,400 ft / 4,389 m 32.81422˚ 131.40261˚ 56 nm 56 nm 358° / 358° -
O RJDC APT - 0 ft / 0 m 33.92991˚ 131.27877˚ 67 nm 123 nm 355° / 355° YAMAGUCHI UBE

Altitude Profile

Advertisement - Login to hide

RJFM

Details ICAO RJFM (KMI)
Name MIYAZAKI
Region Japan
Timezone Asia/Tokyo (UTC+9.0)
Stats Elevation 20 ft / 6 m (AMSL)
Location 31.877128° 131.448447°
Runways 1
Magnetic Variation 6.932° W

METAR

RJFM 112300Z 26008KT 9999 FEW030 05/M03 Q1023

Decode

TAF

TAF RJFM 111705Z 1118/1300 27011KT 9999 FEW030 TEMPO 1203/1209 29016G26KT

Decode

Departure Runways

ID Width Length Bearing (true) Bearing (mag) Surface Threshold Offset Overrun Length
09 150 ft / 46 m 8,187 ft / 2,496 m 85.16° 92.09° Asphalt 0 ft / 0 m 200 ft / 61 m
27 150 ft / 46 m 8,187 ft / 2,496 m 265.18° 272.11° Asphalt 0 ft / 0 m 200 ft / 61 m

RJDC

Details ICAO RJDC (UBJ)
Name YAMAGUCHI UBE
Region Japan
Timezone Asia/Tokyo (UTC+9.0)
Stats Elevation 23 ft / 7 m (AMSL)
Location 33.929913° 131.278765°
Runways 1
Magnetic Variation 7.561° W

METAR

RJDC 112300Z 33006KT 260V020 9999 VCSH FEW025 BKN045 02/M06 Q1025

Decode

TAF

Not found

Destination Runways

ID Width Length Bearing (true) Bearing (mag) Surface Threshold Offset Overrun Length
07 150 ft / 46 m 8,196 ft / 2,498 m 62.16° 69.72° Asphalt 0 ft / 0 m 210 ft / 64 m
25 150 ft / 46 m 8,196 ft / 2,498 m 242.17° 249.73° Asphalt 0 ft / 0 m 210 ft / 64 m

Approach Navaids

Runway Type Ident Frequency Range Bearing (true) Bearing (mag) Slope Elevation
07 Localiser IUB 110.10 MHz 18 nm / 33 km 62.16° 69.72° - 23 ft / 7 m (AMSL)
07 Glidescope IUB 110.10 MHz 10 nm / 19 km 62.16° 69.72° 3.00° 39 ft / 12 m (AMSL)

Popular Alternatives